Time;durP1;ratioP1;P1;durP2;ratioP2;P2;SDS_P1;SDS_P2;PMS_P1;PMS_P2;Temp;Humidity;BMP_temperature;BMP_pressure;BME280_temperature;BME280_humidity;BME280_pressure;Samples;Min_cycle;Max_cycle;Signal;HPM_P1;HPM_P2
2021/12/11 00:00:49;;;;;;;1.00;0.23;;;3.40;99.90;;;;;;5054399;28;20453;-58
2021/12/11 00:03:19;;;;;;;0.40;0.20;;;3.40;99.90;;;;;;5055068;28;20429;-58
2021/12/11 00:05:52;;;;;;;0.93;0.20;;;3.40;99.90;;;;;;5055040;28;20453;-58
2021/12/11 00:08:24;;;;;;;0.53;0.20;;;3.30;99.90;;;;;;5056663;28;20513;-58
2021/12/11 00:10:57;;;;;;;0.30;0.20;;;3.30;99.90;;;;;;5056423;28;20459;-59
2021/12/11 00:13:26;;;;;;;0.30;0.20;;;3.30;99.90;;;;;;5058457;28;20600;-58
2021/12/11 00:15:56;;;;;;;0.60;0.30;;;3.30;99.90;;;;;;5056846;28;20559;-58
2021/12/11 00:18:25;;;;;;;0.30;0.20;;;3.30;99.90;;;;;;5057001;28;20810;-57
2021/12/11 00:20:58;;;;;;;1.00;0.20;;;3.30;99.90;;;;;;5056577;28;20544;-58
2021/12/11 00:23:29;;;;;;;0.70;0.30;;;3.30;99.90;;;;;;5056375;28;20480;-58
2021/12/11 00:25:59;;;;;;;0.40;0.20;;;3.30;99.90;;;;;;5056416;28;20532;-58
2021/12/11 00:28:27;;;;;;;0.30;0.20;;;3.40;99.90;;;;;;5056172;28;20422;-58
2021/12/11 00:30:54;;;;;;;0.50;0.20;;;3.40;99.90;;;;;;5055698;28;20825;-59
2021/12/11 00:33:25;;;;;;;0.50;0.20;;;3.40;99.90;;;;;;5057059;28;20546;-59
2021/12/11 00:35:54;;;;;;;1.40;0.20;;;3.40;99.90;;;;;;5056290;28;20951;-58
2021/12/11 00:38:23;;;;;;;0.40;0.20;;;3.50;99.90;;;;;;5056173;28;20457;-58
2021/12/11 00:40:52;;;;;;;0.40;0.20;;;3.50;99.90;;;;;;5056678;28;20449;-58
2021/12/11 00:43:28;;;;;;;0.30;0.10;;;3.60;99.90;;;;;;5057480;28;20529;-59
2021/12/11 00:45:56;;;;;;;0.50;0.20;;;3.50;99.90;;;;;;5056991;28;20741;-58
2021/12/11 00:48:27;;;;;;;0.30;0.10;;;3.60;99.90;;;;;;5057476;28;20788;-58
2021/12/11 00:50:59;;;;;;;0.87;0.20;;;3.60;99.90;;;;;;5058094;28;20539;-58
2021/12/11 00:53:30;;;;;;;0.30;0.20;;;3.60;99.90;;;;;;5057265;28;20534;-58
2021/12/11 00:56:00;;;;;;;0.40;0.20;;;3.60;99.90;;;;;;5057645;28;20542;-59
2021/12/11 00:58:30;;;;;;;0.30;0.20;;;3.60;99.90;;;;;;5057431;28;20474;-58
2021/12/11 01:01:01;;;;;;;0.60;0.20;;;3.60;99.90;;;;;;5056173;28;20558;-58
2021/12/11 01:03:36;;;;;;;0.37;0.13;;;3.60;99.90;;;;;;5057035;28;20796;-58
2021/12/11 01:06:09;;;;;;;0.40;0.20;;;3.60;99.90;;;;;;5057336;28;20542;-58
2021/12/11 01:08:39;;;;;;;0.30;0.13;;;3.70;99.90;;;;;;5055335;28;20450;-58
2021/12/11 01:11:10;;;;;;;0.53;0.27;;;3.70;99.90;;;;;;5055629;28;20466;-58
2021/12/11 01:13:42;;;;;;;0.43;0.20;;;3.70;99.90;;;;;;5054857;28;20429;-58
2021/12/11 01:16:13;;;;;;;0.30;0.20;;;3.60;99.90;;;;;;5055743;28;20812;-58
2021/12/11 01:18:43;;;;;;;0.30;0.20;;;3.50;99.90;;;;;;5056200;28;20657;-58
2021/12/11 01:21:33;;;;;;;0.30;0.10;;;3.60;99.90;;;;;;5055384;28;20496;-58
2021/12/11 01:24:13;;;;;;;0.40;0.20;;;3.50;99.90;;;;;;5054496;28;20545;-58
2021/12/11 01:26:45;;;;;;;0.47;0.20;;;3.50;99.90;;;;;;5054271;28;20482;-58
2021/12/11 01:29:15;;;;;;;0.40;0.20;;;3.60;99.90;;;;;;5054988;28;20994;-58
2021/12/11 01:31:42;;;;;;;0.40;0.20;;;3.60;99.90;;;;;;5055196;28;20516;-57
2021/12/11 01:34:10;;;;;;;0.57;0.20;;;3.40;99.90;;;;;;5055130;28;20505;-56
2021/12/11 01:36:38;;;;;;;0.20;0.10;;;3.20;99.90;;;;;;5054884;28;20447;-58
2021/12/11 01:39:12;;;;;;;0.30;0.20;;;3.10;99.90;;;;;;5055848;28;20517;-57
2021/12/11 01:41:40;;;;;;;0.30;0.20;;;3.10;99.90;;;;;;5055784;28;20598;-57
2021/12/11 01:44:12;;;;;;;0.60;0.30;;;3.10;99.90;;;;;;5055953;28;20567;-57
2021/12/11 01:46:40;;;;;;;0.50;0.23;;;3.10;99.90;;;;;;5056191;28;20928;-57
2021/12/11 01:49:12;;;;;;;0.30;0.20;;;3.10;99.90;;;;;;5055893;28;20768;-57
2021/12/11 01:51:44;;;;;;;0.40;0.20;;;3.00;99.90;;;;;;5054430;28;20494;-58
2021/12/11 01:54:16;;;;;;;0.30;0.10;;;2.90;99.90;;;;;;5055836;28;20478;-57
2021/12/11 01:56:47;;;;;;;0.30;0.20;;;3.00;99.90;;;;;;5055258;28;20459;-57
2021/12/11 01:59:18;;;;;;;0.30;0.20;;;3.10;99.90;;;;;;5055670;28;20454;-58
2021/12/11 02:01:52;;;;;;;0.40;0.10;;;3.20;99.90;;;;;;5054314;28;20524;-58
2021/12/11 02:04:21;;;;;;;0.40;0.20;;;3.10;99.90;;;;;;5054068;28;20885;-58
2021/12/11 02:06:53;;;;;;;0.30;0.10;;;3.10;99.90;;;;;;5054741;28;20458;-57
2021/12/11 02:09:24;;;;;;;0.50;0.20;;;3.10;99.90;;;;;;5054417;28;20912;-58
2021/12/11 02:12:00;;;;;;;0.30;0.10;;;3.10;99.90;;;;;;5054600;28;20809;-58
2021/12/11 02:14:34;;;;;;;0.40;0.23;;;3.10;99.90;;;;;;5054077;28;20444;-58
2021/12/11 02:17:04;;;;;;;0.40;0.20;;;2.90;99.90;;;;;;5054812;28;20422;-57
2021/12/11 02:19:36;;;;;;;0.67;0.20;;;2.90;99.90;;;;;;5054060;28;20494;-57
2021/12/11 02:22:12;;;;;;;0.50;0.20;;;2.90;99.90;;;;;;5053506;28;20781;-57
2021/12/11 02:24:43;;;;;;;0.30;0.10;;;2.80;99.90;;;;;;5054856;28;20779;-56
2021/12/11 02:27:18;;;;;;;0.30;0.10;;;2.80;99.90;;;;;;5054565;28;20793;-57
2021/12/11 02:29:50;;;;;;;0.30;0.10;;;2.90;99.90;;;;;;5054529;28;20436;-56
2021/12/11 02:32:26;;;;;;;0.30;0.10;;;2.90;99.90;;;;;;5054648;28;20528;-54
2021/12/11 02:34:58;;;;;;;0.30;0.13;;;2.90;99.90;;;;;;5054538;28;21159;-55
2021/12/11 02:37:35;;;;;;;0.30;0.10;;;2.80;99.90;;;;;;5054451;28;20820;-56
2021/12/11 02:40:11;;;;;;;0.30;0.10;;;2.80;99.90;;;;;;5055665;28;20430;-54
2021/12/11 02:42:45;;;;;;;0.30;0.10;;;2.80;99.90;;;;;;5055917;28;20479;-56
2021/12/11 02:45:20;;;;;;;0.30;0.10;;;2.80;99.90;;;;;;5056043;28;20866;-56
2021/12/11 02:47:49;;;;;;;0.30;0.10;;;2.80;99.90;;;;;;5057555;28;20504;-58
2021/12/11 02:50:22;;;;;;;0.30;0.10;;;2.80;99.90;;;;;;5060992;28;20929;-57
2021/12/11 02:52:58;;;;;;;0.20;0.10;;;2.80;99.90;;;;;;5061339;28;20501;-57
2021/12/11 02:55:31;;;;;;;0.23;0.10;;;2.80;99.90;;;;;;5060624;28;20425;-57
2021/12/11 02:58:01;;;;;;;0.30;0.10;;;2.90;99.90;;;;;;5061021;28;20548;-57
2021/12/11 03:00:31;;;;;;;0.30;0.10;;;2.70;99.90;;;;;;5060869;28;20822;-58
2021/12/11 03:03:03;;;;;;;0.40;0.17;;;2.60;99.90;;;;;;5060811;28;20793;-58
2021/12/11 03:05:39;;;;;;;0.27;0.10;;;2.60;99.90;;;;;;5061033;28;20938;-58
2021/12/11 03:08:17;;;;;;;0.20;0.10;;;2.60;99.90;;;;;;5062495;28;20758;-58
2021/12/11 03:10:47;;;;;;;0.20;0.10;;;2.60;99.90;;;;;;5062427;28;20434;-58
2021/12/11 03:13:14;;;;;;;0.37;0.10;;;2.70;99.90;;;;;;5061511;28;20516;-57
2021/12/11 03:15:41;;;;;;;0.30;0.10;;;2.80;99.90;;;;;;5061655;28;20561;-57
2021/12/11 03:18:08;;;;;;;0.40;0.10;;;2.80;99.90;;;;;;5062297;28;20501;-58
2021/12/11 03:20:38;;;;;;;0.30;0.10;;;2.80;99.90;;;;;;5061836;28;20915;-58
2021/12/11 03:23:08;;;;;;;3.13;0.20;;;2.80;99.90;;;;;;5061624;28;20887;-58
2021/12/11 03:25:36;;;;;;;1.57;0.30;;;2.90;99.90;;;;;;5061835;28;20453;-58
2021/12/11 03:28:05;;;;;;;0.30;0.10;;;2.90;99.90;;;;;;5062656;28;20520;-57
2021/12/11 03:30:35;;;;;;;0.70;0.30;;;2.90;99.90;;;;;;5061592;28;20921;-57
2021/12/11 03:33:07;;;;;;;0.47;0.20;;;2.90;99.90;;;;;;5062088;28;20903;-58
2021/12/11 03:35:35;;;;;;;0.40;0.20;;;3.00;99.90;;;;;;5061956;28;20542;-58
2021/12/11 03:38:02;;;;;;;0.60;0.30;;;3.00;99.90;;;;;;5061818;28;20516;-58
2021/12/11 03:40:30;;;;;;;0.30;0.20;;;3.00;99.90;;;;;;5062114;28;20524;-58
2021/12/11 03:42:58;;;;;;;0.40;0.30;;;2.90;99.90;;;;;;5062116;28;20413;-57
2021/12/11 03:45:31;;;;;;;0.60;0.30;;;2.90;99.90;;;;;;5062110;28;20552;-57
2021/12/11 03:48:04;;;;;;;0.33;0.20;;;2.90;99.90;;;;;;5062009;28;20487;-57
2021/12/11 03:50:32;;;;;;;0.70;0.37;;;2.80;99.90;;;;;;5062325;28;20502;-58
2021/12/11 03:52:59;;;;;;;0.57;0.30;;;2.80;99.90;;;;;;5062083;28;20534;-60
2021/12/11 03:55:30;;;;;;;0.50;0.40;;;2.80;99.90;;;;;;5061753;28;20468;-58
2021/12/11 03:58:00;;;;;;;0.97;0.30;;;2.90;99.90;;;;;;5061971;28;20517;-58
2021/12/11 04:00:34;;;;;;;1.23;0.30;;;2.90;99.90;;;;;;5058754;28;20469;-58
2021/12/11 04:03:05;;;;;;;0.50;0.40;;;2.90;99.90;;;;;;5057871;28;20479;-58
2021/12/11 04:05:33;;;;;;;0.60;0.30;;;2.90;99.90;;;;;;5057718;28;20489;-58
2021/12/11 04:08:01;;;;;;;0.53;0.40;;;3.00;99.90;;;;;;5057392;28;20521;-58
2021/12/11 04:10:28;;;;;;;1.20;0.40;;;2.90;99.90;;;;;;5057745;28;20558;-57
2021/12/11 04:13:00;;;;;;;0.70;0.40;;;2.90;99.90;;;;;;5057472;28;20462;-58
2021/12/11 04:15:27;;;;;;;0.53;0.30;;;3.00;99.90;;;;;;5057877;28;20746;-58
2021/12/11 04:17:54;;;;;;;0.43;0.30;;;3.00;99.90;;;;;;5057588;28;20483;-58
2021/12/11 04:20:25;;;;;;;0.50;0.30;;;3.00;99.90;;;;;;5057768;28;20459;-58
2021/12/11 04:22:52;;;;;;;0.60;0.40;;;3.00;99.90;;;;;;5058257;28;20534;-57
2021/12/11 04:25:21;;;;;;;0.70;0.43;;;2.90;99.90;;;;;;5056750;28;20560;-58
2021/12/11 04:27:49;;;;;;;0.40;0.40;;;2.90;99.90;;;;;;5056604;28;20525;-57
2021/12/11 04:30:20;;;;;;;0.80;0.40;;;3.00;99.90;;;;;;5056712;28;20530;-58
2021/12/11 04:32:49;;;;;;;0.53;0.30;;;3.00;99.90;;;;;;5056918;28;20770;-58
2021/12/11 04:35:18;;;;;;;0.40;0.30;;;3.10;99.90;;;;;;5056224;28;20542;-58
2021/12/11 04:37:45;;;;;;;0.60;0.30;;;2.90;99.90;;;;;;5056567;28;20526;-58
2021/12/11 04:40:20;;;;;;;0.80;0.40;;;2.90;99.90;;;;;;5057925;28;20929;-58
2021/12/11 04:42:55;;;;;;;0.60;0.40;;;2.80;99.90;;;;;;5058278;28;20421;-58
2021/12/11 04:45:29;;;;;;;0.97;0.50;;;2.90;99.90;;;;;;5057883;28;20461;-58
2021/12/11 04:48:02;;;;;;;0.57;0.37;;;2.80;99.90;;;;;;5055733;28;20450;-58
2021/12/11 04:50:40;;;;;;;0.60;0.40;;;2.80;99.90;;;;;;5054672;28;20562;-58
2021/12/11 04:53:21;;;;;;;0.90;0.50;;;2.90;99.90;;;;;;5054848;28;20445;-58
2021/12/11 04:56:11;;;;;;;0.47;0.30;;;3.00;99.90;;;;;;5053295;28;21038;-58
2021/12/11 04:58:55;;;;;;;0.70;0.40;;;3.00;99.90;;;;;;5053653;28;20451;-58
2021/12/11 05:01:39;;;;;;;0.97;0.57;;;3.00;99.90;;;;;;5052819;28;20473;-58
2021/12/11 05:07:03;;;;;;;0.97;0.53;;;3.10;99.90;;;;;;5049910;28;20445;-58
2021/12/11 05:09:38;;;;;;;1.10;0.53;;;3.10;99.90;;;;;;5056550;28;20429;-58
2021/12/11 05:12:17;;;;;;;0.80;0.50;;;3.10;99.90;;;;;;5055138;28;20421;-58
2021/12/11 05:14:48;;;;;;;0.93;0.40;;;3.10;99.90;;;;;;5055203;28;20441;-58
2021/12/11 05:17:20;;;;;;;0.83;0.50;;;3.10;99.90;;;;;;5054854;28;20899;-58
2021/12/11 05:19:48;;;;;;;0.50;0.30;;;3.10;99.90;;;;;;5055370;28;20455;-58
2021/12/11 05:22:17;;;;;;;0.70;0.50;;;3.10;99.90;;;;;;5056124;28;20501;-58
2021/12/11 05:24:48;;;;;;;0.60;0.43;;;3.10;99.90;;;;;;5055876;28;20533;-58
2021/12/11 05:27:19;;;;;;;1.20;0.40;;;3.10;99.90;;;;;;5054772;28;20800;-58
2021/12/11 05:29:47;;;;;;;0.70;0.50;;;3.00;99.90;;;;;;5054956;28;20865;-58
2021/12/11 05:32:20;;;;;;;0.70;0.60;;;2.90;99.90;;;;;;5054230;28;20542;-58
2021/12/11 05:34:47;;;;;;;2.20;0.60;;;2.90;99.90;;;;;;5052906;28;20777;-58
2021/12/11 05:37:17;;;;;;;0.80;0.40;;;2.90;99.90;;;;;;5053166;28;20803;-58
2021/12/11 05:39:44;;;;;;;1.40;0.60;;;2.90;99.90;;;;;;5054492;28;20737;-58
2021/12/11 05:42:11;;;;;;;0.97;0.57;;;2.90;99.90;;;;;;5055431;28;20509;-58
2021/12/11 05:44:42;;;;;;;0.70;0.50;;;2.90;99.90;;;;;;5055909;28;20601;-58
2021/12/11 05:47:13;;;;;;;0.90;0.53;;;2.90;99.90;;;;;;5057257;28;20542;-58
2021/12/11 05:49:43;;;;;;;0.60;0.40;;;3.00;99.90;;;;;;5056134;28;20546;-58
2021/12/11 05:52:15;;;;;;;0.87;0.60;;;3.00;99.90;;;;;;5055308;28;20533;-58
2021/12/11 05:54:45;;;;;;;0.80;0.60;;;3.00;99.90;;;;;;5055727;28;20477;-58
2021/12/11 05:57:17;;;;;;;1.07;0.60;;;3.00;99.90;;;;;;5054963;28;20422;-58
2021/12/11 05:59:46;;;;;;;0.70;0.50;;;3.10;99.90;;;;;;5055186;28;20545;-58
2021/12/11 06:02:16;;;;;;;0.70;0.40;;;3.10;99.90;;;;;;5055401;28;20539;-58
2021/12/11 06:04:47;;;;;;;0.80;0.57;;;3.10;99.90;;;;;;5055138;28;20459;-58
2021/12/11 06:07:17;;;;;;;0.80;0.60;;;3.00;99.90;;;;;;5056040;28;20457;-58
2021/12/11 06:09:49;;;;;;;0.87;0.57;;;2.90;99.90;;;;;;5055165;28;20430;-58
2021/12/11 06:12:18;;;;;;;0.63;0.40;;;2.90;99.90;;;;;;5055552;28;20911;-58
2021/12/11 06:14:47;;;;;;;1.00;0.63;;;2.90;99.90;;;;;;5055482;28;20980;-58
2021/12/11 06:17:17;;;;;;;1.20;0.70;;;2.90;99.90;;;;;;5054680;28;20528;-58
2021/12/11 06:19:51;;;;;;;1.40;0.60;;;3.00;99.90;;;;;;5055455;28;20711;-57
2021/12/11 06:22:20;;;;;;;0.90;0.60;;;3.00;99.90;;;;;;5055049;28;20862;-58
2021/12/11 06:24:48;;;;;;;0.80;0.60;;;2.90;99.90;;;;;;5054184;28;20883;-58
2021/12/11 06:27:18;;;;;;;1.40;0.60;;;2.90;99.90;;;;;;5054153;28;20548;-58
2021/12/11 06:29:45;;;;;;;0.90;0.60;;;2.90;99.90;;;;;;5054247;28;20507;-58
2021/12/11 06:32:12;;;;;;;0.80;0.50;;;3.00;99.90;;;;;;5054946;28;20534;-57
2021/12/11 06:34:39;;;;;;;2.07;0.80;;;2.90;99.90;;;;;;5055026;28;20523;-57
2021/12/11 06:37:11;;;;;;;0.80;0.60;;;2.90;99.90;;;;;;5053742;28;20833;-55
2021/12/11 06:39:38;;;;;;;1.60;0.83;;;3.00;99.90;;;;;;5054252;28;20449;-55
2021/12/11 06:42:09;;;;;;;3.50;0.70;;;3.00;99.90;;;;;;5054383;28;20799;-56
2021/12/11 06:44:36;;;;;;;1.30;0.70;;;3.10;99.90;;;;;;5054305;28;20432;-52
2021/12/11 06:47:05;;;;;;;0.90;0.67;;;3.10;99.90;;;;;;5053658;28;20556;-56
2021/12/11 06:49:36;;;;;;;1.47;0.83;;;3.10;99.90;;;;;;5054341;28;20447;-52
2021/12/11 06:52:10;;;;;;;1.20;0.70;;;3.10;99.90;;;;;;5055131;28;20490;-53
2021/12/11 06:54:38;;;;;;;1.50;0.87;;;3.10;99.90;;;;;;5054241;28;20797;-53
2021/12/11 06:57:06;;;;;;;1.20;0.80;;;3.10;99.90;;;;;;5053141;28;20635;-56
2021/12/11 06:59:33;;;;;;;1.33;0.60;;;3.10;99.90;;;;;;5051542;28;20784;-57
2021/12/11 07:02:00;;;;;;;1.20;0.80;;;3.10;99.90;;;;;;5051477;28;20527;-59
2021/12/11 07:04:29;;;;;;;1.00;0.80;;;3.20;99.90;;;;;;5051637;28;20630;-58
2021/12/11 07:06:59;;;;;;;1.00;0.70;;;3.10;99.90;;;;;;5051970;28;20484;-59
2021/12/11 07:09:29;;;;;;;1.17;0.83;;;3.10;99.90;;;;;;5053181;28;20799;-58
2021/12/11 07:11:58;;;;;;;1.90;1.00;;;3.10;99.90;;;;;;5055782;28;20425;-58
2021/12/11 07:14:31;;;;;;;1.10;0.80;;;3.10;99.90;;;;;;5055327;28;20919;-59
2021/12/11 07:17:01;;;;;;;1.17;0.70;;;3.10;99.90;;;;;;5055614;28;20494;-59
2021/12/11 07:19:33;;;;;;;1.00;0.70;;;3.20;99.90;;;;;;5053943;28;20800;-59
2021/12/11 07:22:00;;;;;;;1.73;0.77;;;3.40;99.90;;;;;;5052859;28;20440;-58
2021/12/11 07:24:38;;;;;;;1.50;1.00;;;3.60;99.90;;;;;;5053250;28;20542;-59
2021/12/11 07:27:08;;;;;;;3.20;1.10;;;3.60;99.90;;;;;;5051895;28;21001;-59
2021/12/11 07:29:36;;;;;;;1.50;0.90;;;3.50;99.90;;;;;;5052463;28;20538;-58
2021/12/11 07:32:08;;;;;;;1.17;0.60;;;3.40;99.90;;;;;;5054662;28;20903;-60
2021/12/11 07:34:35;;;;;;;1.50;0.90;;;3.40;99.90;;;;;;5055565;28;20455;-58
2021/12/11 07:37:03;;;;;;;1.83;0.80;;;3.30;99.90;;;;;;5057888;28;20439;-59
2021/12/11 07:39:30;;;;;;;2.17;0.87;;;3.30;99.90;;;;;;5057461;28;20792;-59
2021/12/11 07:42:05;;;;;;;1.70;1.23;;;3.30;99.90;;;;;;5056302;28;20500;-59
2021/12/11 07:44:32;;;;;;;3.23;1.10;;;3.30;99.90;;;;;;5055605;28;20417;-59
2021/12/11 07:47:01;;;;;;;1.50;1.00;;;3.30;99.90;;;;;;5055706;28;20882;-58
2021/12/11 07:49:32;;;;;;;1.43;0.97;;;3.30;99.90;;;;;;5055932;28;20426;-58
2021/12/11 07:52:01;;;;;;;1.30;0.90;;;3.30;99.90;;;;;;5056383;28;20529;-58
2021/12/11 07:54:28;;;;;;;4.50;1.07;;;3.20;99.90;;;;;;5056307;28;20428;-58
2021/12/11 07:56:59;;;;;;;1.90;1.10;;;3.20;99.90;;;;;;5057182;28;20509;-59
2021/12/11 07:59:27;;;;;;;1.60;1.10;;;3.20;99.90;;;;;;5056005;28;20447;-58
2021/12/11 08:01:54;;;;;;;3.57;1.50;;;3.20;99.90;;;;;;5056753;28;20497;-58
2021/12/11 08:04:25;;;;;;;2.47;1.10;;;3.30;99.90;;;;;;5057019;28;20421;-53
2021/12/11 08:07:03;;;;;;;2.20;0.90;;;3.40;99.90;;;;;;5056471;28;20793;-58
2021/12/11 08:09:30;;;;;;;1.70;1.00;;;3.40;99.90;;;;;;5055037;28;20458;-58
2021/12/11 08:11:57;;;;;;;2.97;1.90;;;3.40;99.90;;;;;;5055659;28;20519;-58
2021/12/11 08:14:26;;;;;;;2.40;1.73;;;3.40;99.90;;;;;;5055814;28;20239;-57
2021/12/11 08:16:57;;;;;;;1.80;1.10;;;3.40;99.90;;;;;;5056155;28;20439;-59
2021/12/11 08:19:27;;;;;;;1.57;1.00;;;3.50;99.90;;;;;;5055258;28;20429;-58
2021/12/11 08:22:00;;;;;;;1.40;1.00;;;3.40;99.90;;;;;;5055568;28;20554;-59
2021/12/11 08:24:31;;;;;;;2.83;1.47;;;3.30;99.90;;;;;;5054715;28;20447;-58
2021/12/11 08:27:01;;;;;;;1.40;0.90;;;3.20;99.90;;;;;;5056383;28;20642;-59
2021/12/11 08:29:34;;;;;;;2.47;1.20;;;3.30;99.90;;;;;;5055570;28;20923;-59
2021/12/11 08:32:01;;;;;;;3.30;1.10;;;3.40;99.90;;;;;;5056224;28;20924;-58
2021/12/11 08:34:29;;;;;;;7.03;1.50;;;3.40;99.90;;;;;;5056088;28;20483;-58
2021/12/11 08:36:57;;;;;;;2.40;1.10;;;3.40;99.90;;;;;;5056832;28;20870;-59
2021/12/11 08:39:28;;;;;;;2.87;1.30;;;3.40;99.90;;;;;;5054543;28;20454;-59
2021/12/11 08:41:56;;;;;;;2.67;1.60;;;3.40;99.90;;;;;;5054053;28;20446;-59
2021/12/11 08:44:24;;;;;;;3.53;1.50;;;3.40;99.90;;;;;;5054872;28;20534;-58
2021/12/11 08:46:55;;;;;;;1.47;1.20;;;3.40;99.90;;;;;;5054073;28;20759;-59
2021/12/11 08:49:25;;;;;;;2.63;1.10;;;3.40;99.90;;;;;;5049328;28;20446;-59
2021/12/11 08:51:55;;;;;;;2.80;1.20;;;3.40;99.90;;;;;;5054352;28;20665;-59
2021/12/11 08:54:26;;;;;;;3.10;1.60;;;3.40;99.90;;;;;;5054209;28;20537;-58
2021/12/11 08:56:55;;;;;;;3.57;0.80;;;3.40;99.90;;;;;;5053179;28;20513;-59
2021/12/11 08:59:24;;;;;;;3.13;1.60;;;3.60;99.90;;;;;;5050925;28;20541;-57
2021/12/11 09:01:57;;;;;;;2.77;1.03;;;3.80;99.90;;;;;;5052615;28;20540;-58
2021/12/11 09:04:32;;;;;;;2.40;0.83;;;4.10;99.90;;;;;;5052374;28;20972;-59
2021/12/11 09:07:04;;;;;;;2.77;1.40;;;4.30;99.90;;;;;;5053301;28;20535;-59
2021/12/11 09:09:38;;;;;;;2.47;1.50;;;4.80;99.90;;;;;;5053355;28;21870;-58
2021/12/11 09:12:13;;;;;;;4.23;1.40;;;4.60;99.90;;;;;;5052692;28;20909;-59
2021/12/11 09:14:48;;;;;;;3.97;1.50;;;4.40;99.90;;;;;;5050902;28;20446;-58
2021/12/11 09:17:26;;;;;;;3.90;2.00;;;4.10;99.90;;;;;;5052837;28;20451;-59
2021/12/11 09:20:00;;;;;;;2.13;1.20;;;3.90;99.90;;;;;;5052188;28;20578;-58
2021/12/11 09:22:31;;;;;;;2.73;1.10;;;4.20;99.90;;;;;;5048283;28;20822;-58
2021/12/11 09:25:05;;;;;;;2.20;1.10;;;4.30;99.90;;;;;;5051939;28;20448;-59
2021/12/11 09:27:36;;;;;;;2.10;1.20;;;4.40;99.90;;;;;;5053184;28;20807;-59
2021/12/11 09:30:08;;;;;;;4.83;1.80;;;4.20;99.90;;;;;;5051426;28;20545;-58
2021/12/11 09:32:42;;;;;;;2.07;1.10;;;4.20;99.90;;;;;;5050687;28;20911;-58
2021/12/11 09:35:14;;;;;;;2.60;1.10;;;4.10;99.90;;;;;;5053600;28;20459;-59
2021/12/11 09:37:42;;;;;;;1.90;0.90;;;4.20;99.90;;;;;;5052813;28;20704;-58
2021/12/11 09:40:15;;;;;;;1.40;0.90;;;4.20;99.90;;;;;;5052953;28;20821;-58
2021/12/11 09:42:42;;;;;;;1.70;1.07;;;4.50;99.90;;;;;;5043793;28;20451;-58
2021/12/11 09:45:15;;;;;;;1.50;1.00;;;4.80;99.90;;;;;;5053663;28;20979;-58
2021/12/11 09:47:51;;;;;;;1.97;1.03;;;5.10;99.90;;;;;;5033448;28;20546;-58
2021/12/11 09:50:22;;;;;;;1.70;1.00;;;5.10;99.90;;;;;;5044632;28;20482;-58
2021/12/11 09:52:56;;;;;;;1.40;1.00;;;4.90;99.90;;;;;;5049680;28;20548;-59
2021/12/11 09:55:27;;;;;;;1.50;0.90;;;4.70;99.90;;;;;;5065755;28;20458;-58
2021/12/11 09:58:00;;;;;;;2.13;1.00;;;4.80;99.90;;;;;;5047857;28;20546;-58
2021/12/11 10:00:38;;;;;;;2.00;1.00;;;4.90;99.90;;;;;;5052563;28;20762;-58
2021/12/11 10:03:07;;;;;;;2.70;1.30;;;4.80;99.90;;;;;;5053108;28;20542;-57
2021/12/11 10:05:43;;;;;;;2.90;1.20;;;4.80;99.90;;;;;;5051071;28;20455;-59
2021/12/11 10:08:27;;;;;;;1.60;1.00;;;4.70;99.90;;;;;;5050945;28;20550;-59
2021/12/11 10:11:05;;;;;;;1.63;0.90;;;5.00;99.90;;;;;;5051791;28;20505;-58
2021/12/11 10:13:36;;;;;;;2.87;0.97;;;4.80;99.90;;;;;;5053609;28;20526;-58
2021/12/11 10:16:08;;;;;;;1.43;0.97;;;4.90;99.90;;;;;;5052247;28;20495;-58
2021/12/11 10:18:36;;;;;;;2.77;1.17;;;5.30;99.90;;;;;;5051644;28;20447;-59
2021/12/11 10:21:09;;;;;;;2.17;0.90;;;5.20;99.90;;;;;;5050055;28;20546;-58
2021/12/11 10:23:40;;;;;;;1.70;0.90;;;5.20;99.90;;;;;;5050511;28;21112;-58
2021/12/11 10:26:10;;;;;;;1.90;0.90;;;5.20;99.90;;;;;;5051228;28;20809;-59
2021/12/11 10:28:40;;;;;;;1.57;0.77;;;5.50;99.90;;;;;;5049099;28;20515;-59
2021/12/11 10:31:13;;;;;;;1.13;0.80;;;5.30;99.90;;;;;;5050630;28;20550;-59
2021/12/11 10:33:40;;;;;;;1.93;1.10;;;5.40;99.90;;;;;;5053082;28;20576;-59
2021/12/11 10:36:12;;;;;;;4.13;1.10;;;5.60;99.90;;;;;;5052831;28;20937;-59
2021/12/11 10:38:40;;;;;;;1.10;0.70;;;5.30;99.90;;;;;;5052537;28;20534;-59
2021/12/11 10:41:10;;;;;;;1.60;0.80;;;5.10;99.90;;;;;;5052497;28;20491;-59
2021/12/11 10:43:46;;;;;;;1.20;0.80;;;5.20;99.90;;;;;;5054127;28;20451;-59
2021/12/11 10:46:36;;;;;;;2.20;0.80;;;5.10;99.90;;;;;;5052678;28;20887;-59
2021/12/11 10:49:06;;;;;;;3.30;0.90;;;5.50;99.90;;;;;;5060112;28;20458;-59
2021/12/11 10:51:47;;;;;;;2.10;1.10;;;5.90;99.90;;;;;;5052422;28;20478;-58
2021/12/11 10:54:20;;;;;;;1.80;0.90;;;5.80;99.90;;;;;;5052087;28;20758;-58
2021/12/11 10:56:48;;;;;;;1.77;0.80;;;5.60;99.90;;;;;;5049611;28;20517;-58
2021/12/11 10:59:21;;;;;;;1.30;0.83;;;5.50;99.90;;;;;;5049905;28;20443;-59
2021/12/11 11:01:56;;;;;;;1.17;0.70;;;5.70;99.90;;;;;;5053234;28;20466;-58
2021/12/11 11:04:25;;;;;;;1.27;0.70;;;5.50;99.90;;;;;;5052027;28;20446;-60
2021/12/11 11:06:56;;;;;;;1.10;0.70;;;5.60;99.90;;;;;;5047661;28;20538;-62
2021/12/11 11:09:24;;;;;;;1.90;0.90;;;5.70;99.90;;;;;;5052758;28;20487;-59
2021/12/11 11:11:54;;;;;;;1.03;0.80;;;5.70;99.90;;;;;;5049178;28;20455;-59
2021/12/11 11:14:22;;;;;;;1.67;0.80;;;5.70;99.90;;;;;;5034957;28;20475;-57
2021/12/11 11:16:59;;;;;;;2.23;0.90;;;5.50;99.90;;;;;;5047167;28;20839;-59
2021/12/11 11:19:31;;;;;;;1.40;0.60;;;5.80;99.90;;;;;;5058635;28;20557;-59
2021/12/11 11:22:01;;;;;;;2.07;0.80;;;6.00;99.90;;;;;;5059014;28;20999;-58
2021/12/11 11:24:35;;;;;;;1.10;0.80;;;5.70;99.90;;;;;;5054021;28;20521;-57
2021/12/11 11:27:03;;;;;;;1.87;0.70;;;5.70;99.90;;;;;;5055708;28;20573;-59
2021/12/11 11:29:31;;;;;;;1.13;0.90;;;5.80;99.90;;;;;;5054927;28;20444;-59
2021/12/11 11:32:04;;;;;;;1.80;0.80;;;5.80;99.90;;;;;;5060244;28;20545;-59
2021/12/11 11:34:40;;;;;;;1.03;0.63;;;5.70;99.90;;;;;;5060887;28;20534;-60
2021/12/11 11:37:12;;;;;;;1.70;0.80;;;5.10;99.90;;;;;;5069263;28;20530;-59
2021/12/11 11:39:52;;;;;;;1.10;0.70;;;4.90;99.90;;;;;;5055726;28;20486;-59
2021/12/11 11:42:24;;;;;;;2.07;0.70;;;5.10;99.90;;;;;;5050592;28;20447;-59
2021/12/11 11:44:54;;;;;;;2.33;0.80;;;5.10;99.90;;;;;;5056549;28;20459;-59
2021/12/11 11:47:24;;;;;;;1.13;0.60;;;5.10;99.90;;;;;;5054843;28;20475;-59
2021/12/11 11:49:59;;;;;;;1.77;0.80;;;5.40;99.90;;;;;;5054198;28;20483;-59
2021/12/11 11:52:28;;;;;;;1.30;0.67;;;5.00;99.90;;;;;;5032809;28;20538;-59
2021/12/11 11:54:58;;;;;;;3.20;1.33;;;4.90;99.90;;;;;;5032151;28;20543;-58
2021/12/11 11:57:28;;;;;;;2.20;0.90;;;4.70;99.90;;;;;;5034297;28;20444;-59
2021/12/11 11:59:57;;;;;;;1.60;0.80;;;4.80;99.90;;;;;;5036338;28;20444;-59
2021/12/11 12:02:30;;;;;;;1.10;0.80;;;5.10;99.90;;;;;;5042185;28;20448;-58
2021/12/11 12:05:00;;;;;;;2.27;0.87;;;5.50;99.90;;;;;;5035349;28;20471;-55
2021/12/11 12:07:31;;;;;;;1.20;0.80;;;5.50;99.90;;;;;;5034088;28;20536;-60
2021/12/11 12:10:09;;;;;;;1.23;0.80;;;5.30;99.90;;;;;;5033556;28;20719;-58
2021/12/11 12:12:36;;;;;;;2.50;0.90;;;5.30;99.90;;;;;;5042875;28;20875;-58
2021/12/11 12:15:07;;;;;;;1.80;0.97;;;5.40;99.90;;;;;;5046004;28;20908;-60
2021/12/11 12:17:38;;;;;;;2.40;1.00;;;5.20;99.90;;;;;;5046224;28;20527;-59
2021/12/11 12:20:12;;;;;;;3.27;0.90;;;5.40;99.90;;;;;;5025222;28;20938;-59
2021/12/11 12:22:40;;;;;;;1.40;0.80;;;5.80;99.90;;;;;;5026677;28;20511;-60
2021/12/11 12:25:09;;;;;;;2.77;1.00;;;6.00;99.90;;;;;;5024866;28;21222;-60
2021/12/11 12:27:42;;;;;;;2.63;0.80;;;5.70;99.90;;;;;;5050961;28;20515;-59
2021/12/11 12:30:14;;;;;;;1.87;0.80;;;5.60;99.90;;;;;;5031975;28;20456;-59
2021/12/11 12:32:44;;;;;;;1.43;0.80;;;5.20;99.90;;;;;;5034481;28;20448;-59
2021/12/11 12:35:15;;;;;;;1.10;0.70;;;5.30;99.90;;;;;;5032907;28;20479;-59
2021/12/11 12:37:44;;;;;;;1.20;0.80;;;5.20;99.90;;;;;;5030608;28;20539;-59
2021/12/11 12:43:53;;;;;;;1.80;1.10;;;5.30;99.90;;;;;;5033694;28;20445;-59
2021/12/11 12:46:31;;;;;;;1.50;0.80;;;5.30;99.90;;;;;;5042224;28;20193;-59
2021/12/11 12:49:04;;;;;;;4.07;0.90;;;5.40;99.90;;;;;;5036022;28;20480;-59
2021/12/11 12:51:31;;;;;;;1.70;0.90;;;5.60;99.90;;;;;;5046021;28;20589;-60
2021/12/11 12:54:01;;;;;;;1.60;0.80;;;6.00;99.90;;;;;;5031773;28;20453;-59
2021/12/11 12:56:31;;;;;;;1.13;0.67;;;6.20;99.90;;;;;;5043329;28;20460;-59
2021/12/11 12:59:05;;;;;;;1.47;0.70;;;6.20;99.90;;;;;;5049023;28;20796;-59
2021/12/11 13:01:42;;;;;;;2.50;0.80;;;6.40;99.90;;;;;;5023542;28;20444;-59
2021/12/11 13:04:18;;;;;;;1.80;0.90;;;6.50;99.90;;;;;;5032598;28;20448;-59
2021/12/11 13:06:51;;;;;;;1.53;0.60;;;6.60;99.90;;;;;;5035779;28;20459;-58
2021/12/11 13:09:22;;;;;;;1.00;0.87;;;6.50;99.90;;;;;;5034023;28;20572;-59
2021/12/11 13:12:01;;;;;;;1.00;0.67;;;6.40;99.90;;;;;;5038209;28;20974;-59
2021/12/11 13:14:32;;;;;;;1.70;0.70;;;5.90;99.90;;;;;;5036352;28;20448;-59
2021/12/11 13:17:06;;;;;;;1.00;0.60;;;5.60;99.90;;;;;;5035788;28;20491;-59
2021/12/11 13:19:48;;;;;;;1.07;0.70;;;5.30;99.90;;;;;;5048888;28;20610;-59
2021/12/11 13:22:24;;;;;;;3.53;2.60;;;5.70;99.90;;;;;;5039334;28;20530;-59
2021/12/11 13:25:01;;;;;;;1.30;0.70;;;5.70;99.90;;;;;;5035800;28;20517;-59